Terminal Aerodrome Forecast
Issued by NWS

Home | Current Version | Previous Version | Text Only | Print | Product List | Glossary On
Versions: 1 2 3 4 5 6 7 8 9 10 11 12 13
000
FTUS45 KTFX 202328
TAFCTB
TAF
KCTB 202328Z 2100/2124 28011KT P6SM SCT090 BKN200
     FM210800 28007KT P6SM FEW060 SCT080=

USA.gov is the U.S. government's official web portal to all federal, state and local government web resources and services.